createdAt,value
2022-08-17T00:00:42.987Z,47.15
2022-08-17T00:03:17.254Z,47.22
2022-08-17T00:05:58.032Z,47.17
2022-08-17T00:08:32.624Z,47.55
2022-08-17T00:11:01.461Z,47.47
2022-08-17T00:13:35.822Z,47.53
2022-08-17T00:16:07.957Z,47.54
2022-08-17T00:19:04.164Z,47.76
2022-08-17T00:21:25.305Z,47.61
2022-08-17T00:23:54.383Z,47.60
2022-08-17T00:26:43.701Z,47.63
2022-08-17T00:29:19.933Z,47.80
2022-08-17T00:31:49.032Z,47.86
2022-08-17T00:34:17.213Z,47.90
2022-08-17T00:36:52.420Z,48.01
2022-08-17T00:39:20.244Z,48.15
2022-08-17T00:41:48.060Z,47.86
2022-08-17T00:44:16.638Z,47.92
2022-08-17T00:46:44.871Z,48.03
2022-08-17T00:49:14.754Z,48.15
2022-08-17T00:51:56.561Z,48.51
2022-08-17T00:54:31.645Z,48.40
2022-08-17T00:57:04.412Z,48.66
2022-08-17T00:59:37.655Z,48.60
2022-08-17T01:02:07.018Z,48.59
2022-08-17T01:04:35.679Z,48.76
2022-08-17T01:07:04.503Z,48.99
2022-08-17T01:09:33.468Z,48.92
2022-08-17T01:12:01.581Z,49.00
2022-08-17T01:14:29.408Z,48.93
2022-08-17T01:16:57.351Z,49.08
2022-08-17T01:19:35.914Z,48.96
2022-08-17T01:22:09.544Z,49.12
2022-08-17T01:24:40.765Z,49.10
2022-08-17T01:27:10.913Z,49.13
2022-08-17T01:29:42.366Z,49.13
2022-08-17T01:32:10.220Z,49.36
2022-08-17T01:34:43.009Z,49.29
2022-08-17T01:37:15.387Z,49.20
2022-08-17T01:39:47.675Z,49.34
2022-08-17T01:42:42.337Z,49.43
2022-08-17T01:45:18.212Z,49.39
2022-08-17T01:47:46.587Z,49.51
2022-08-17T01:50:17.486Z,49.57
2022-08-17T01:52:47.040Z,49.88
2022-08-17T01:55:16.705Z,49.90
2022-08-17T01:57:45.773Z,49.91
2022-08-17T02:00:14.447Z,50.04
2022-08-17T02:02:42.856Z,50.23
2022-08-17T02:05:10.731Z,50.28
2022-08-17T02:08:00.483Z,50.33
2022-08-17T02:10:34.095Z,50.63
2022-08-17T02:13:03.707Z,50.59
2022-08-17T02:15:32.260Z,50.66
2022-08-17T02:18:01.556Z,50.61
2022-08-17T02:20:42.089Z,50.69
2022-08-17T02:23:12.245Z,51.03
2022-08-17T02:25:43.479Z,51.16
2022-08-17T02:28:30.268Z,51.16
2022-08-17T02:31:03.255Z,51.15
2022-08-17T02:33:42.911Z,51.12
2022-08-17T02:36:13.473Z,51.31
2022-08-17T02:38:42.426Z,51.37
2022-08-17T02:41:10.472Z,51.42
2022-08-17T02:43:38.272Z,51.45
2022-08-17T02:46:06.184Z,51.51
2022-08-17T02:48:34.360Z,51.53
2022-08-17T02:51:02.162Z,51.52
2022-08-17T02:53:33.660Z,51.60
2022-08-17T02:56:04.387Z,51.60
2022-08-17T02:58:34.913Z,51.59
2022-08-17T03:01:08.348Z,51.40
2022-08-17T03:03:36.796Z,50.95
2022-08-17T03:06:05.169Z,50.50
2022-08-17T03:08:33.029Z,50.15
2022-08-17T03:11:00.825Z,49.69
2022-08-17T03:13:30.909Z,49.35
2022-08-17T03:15:58.876Z,48.73
2022-08-17T03:18:28.143Z,48.51
2022-08-17T03:21:00.385Z,48.18
2022-08-17T03:23:29.431Z,47.71
2022-08-17T03:25:59.425Z,47.19
2022-08-17T03:28:28.333Z,47.04
2022-08-17T03:30:56.182Z,46.46
2022-08-17T03:33:24.028Z,46.26
2022-08-17T03:35:52.274Z,46.74
2022-08-17T03:38:20.610Z,46.46
2022-08-17T03:40:57.225Z,46.17
2022-08-17T03:43:29.074Z,45.75
2022-08-17T03:46:33.890Z,45.29
2022-08-17T03:49:26.453Z,44.51
2022-08-17T03:52:14.354Z,44.06
2022-08-17T03:55:01.558Z,43.51
2022-08-17T03:57:32.164Z,43.33
2022-08-17T04:00:00.142Z,43.02
2022-08-17T04:02:31.286Z,42.72
2022-08-17T04:04:59.710Z,42.35
2022-08-17T04:07:31.927Z,41.95
2022-08-17T04:09:59.933Z,41.77
2022-08-17T04:12:31.553Z,41.52
2022-08-17T04:14:59.468Z,41.18
2022-08-17T04:17:29.233Z,41.01
2022-08-17T04:19:57.298Z,40.84
2022-08-17T04:22:32.918Z,40.62
2022-08-17T04:25:13.049Z,40.30
2022-08-17T04:27:44.243Z,39.93
2022-08-17T04:30:13.098Z,39.40
2022-08-17T04:33:05.725Z,39.28
2022-08-17T04:35:43.689Z,38.95
2022-08-17T04:38:15.003Z,39.14
2022-08-17T04:41:02.310Z,39.19
2022-08-17T04:43:31.771Z,39.38
2022-08-17T04:46:05.060Z,39.68
2022-08-17T04:48:42.760Z,39.77
2022-08-17T04:51:19.638Z,39.68
2022-08-17T04:53:53.866Z,39.47
2022-08-17T04:56:26.516Z,39.22
2022-08-17T04:58:57.392Z,39.23
2022-08-17T05:01:28.106Z,39.07
2022-08-17T05:03:59.270Z,38.79
2022-08-17T05:06:28.207Z,38.51
2022-08-17T05:08:59.405Z,38.33
2022-08-17T05:11:29.326Z,38.30
2022-08-17T05:14:00.222Z,38.10
2022-08-17T05:16:29.194Z,37.93
2022-08-17T05:18:59.566Z,37.64
2022-08-17T05:21:27.570Z,37.72
2022-08-17T05:23:58.642Z,37.58
2022-08-17T05:26:29.544Z,37.21
2022-08-17T05:29:02.750Z,37.29
2022-08-17T05:31:31.176Z,37.21
2022-08-17T05:33:59.560Z,37.23
2022-08-17T05:36:42.575Z,37.17
2022-08-17T05:39:16.681Z,36.96
2022-08-17T05:41:52.157Z,36.74
2022-08-17T05:44:19.954Z,36.73
2022-08-17T05:46:50.209Z,36.63
2022-08-17T05:49:24.151Z,36.56
2022-08-17T05:52:07.270Z,36.55
2022-08-17T05:55:07.853Z,36.37
2022-08-17T05:57:47.631Z,36.38
2022-08-17T06:00:50.875Z,36.13
2022-08-17T06:03:27.531Z,36.10
2022-08-17T06:06:35.357Z,35.88
2022-08-17T06:09:33.683Z,35.71
2022-08-17T06:12:26.814Z,35.70
2022-08-17T06:15:14.236Z,35.75
2022-08-17T06:17:43.165Z,35.76
2022-08-17T06:20:14.708Z,35.73
2022-08-17T06:22:49.133Z,35.62
2022-08-17T06:25:34.097Z,35.58
2022-08-17T06:28:08.059Z,35.67
2022-08-17T06:30:59.428Z,35.48
2022-08-17T06:33:45.797Z,35.42
2022-08-17T06:36:46.107Z,35.66
2022-08-17T06:39:47.543Z,35.51
2022-08-17T06:43:04.982Z,35.50
2022-08-17T06:45:32.159Z,35.62
2022-08-17T06:48:06.545Z,35.68
2022-08-17T06:51:09.552Z,35.62
2022-08-17T06:54:00.974Z,35.64
2022-08-17T06:56:54.781Z,35.82
2022-08-17T06:59:55.829Z,35.71
2022-08-17T07:02:52.831Z,35.68
2022-08-17T07:05:34.815Z,35.65
2022-08-17T07:08:12.309Z,35.57
2022-08-17T07:10:50.421Z,35.63
2022-08-17T07:13:53.008Z,35.69
2022-08-17T07:16:28.733Z,35.51
2022-08-17T07:19:00.355Z,35.52
2022-08-17T07:21:34.067Z,35.44
2022-08-17T07:24:29.222Z,35.36
2022-08-17T07:27:11.677Z,35.48
2022-08-17T07:29:49.774Z,35.60
2022-08-17T07:32:23.474Z,35.65
2022-08-17T07:35:05.743Z,35.42
2022-08-17T07:37:38.973Z,35.48
2022-08-17T07:40:18.481Z,35.49
2022-08-17T07:43:05.140Z,35.35
2022-08-17T07:46:06.782Z,35.39
2022-08-17T07:48:37.101Z,35.34
2022-08-17T07:51:31.409Z,35.43
2022-08-17T07:54:14.026Z,35.28
2022-08-17T07:56:45.891Z,35.04
2022-08-17T07:59:21.840Z,34.92
2022-08-17T08:01:56.800Z,34.90
2022-08-17T08:07:34.859Z,34.82
2022-08-17T08:10:08.743Z,34.79
2022-08-17T08:13:14.228Z,34.59
2022-08-17T08:15:54.771Z,34.68
2022-08-17T08:18:55.243Z,34.43
2022-08-17T08:21:45.089Z,34.59
2022-08-17T08:24:30.708Z,34.69
2022-08-17T08:27:09.807Z,34.79
2022-08-17T08:29:56.433Z,34.54
2022-08-17T08:33:00.838Z,34.74
2022-08-17T08:35:53.767Z,34.55
2022-08-17T08:38:24.598Z,34.51
2022-08-17T08:40:59.163Z,34.80
2022-08-17T08:43:55.860Z,34.42
2022-08-17T08:46:32.222Z,34.91
2022-08-17T08:50:05.700Z,34.88
2022-08-17T08:52:37.253Z,34.76
2022-08-17T08:55:22.417Z,34.59
2022-08-17T08:58:01.469Z,34.54
2022-08-17T09:00:35.931Z,34.73
2022-08-17T09:03:51.850Z,34.62
2022-08-17T09:06:33.592Z,34.55
2022-08-17T09:09:25.991Z,34.37
2022-08-17T09:12:41.764Z,34.69
2022-08-17T09:15:20.325Z,34.36
2022-08-17T09:18:59.418Z,34.49
2022-08-17T09:20:58.517Z,34.28
2022-08-17T09:23:42.558Z,34.29
2022-08-17T09:26:23.073Z,34.22
2022-08-17T09:28:53.166Z,34.50
2022-08-17T09:31:31.293Z,34.57
2022-08-17T09:34:04.014Z,34.26
2022-08-17T09:36:36.109Z,34.35
2022-08-17T09:39:09.343Z,34.37
2022-08-17T09:42:27.610Z,34.20
2022-08-17T09:45:10.944Z,34.56
2022-08-17T09:48:10.505Z,34.51
2022-08-17T09:51:05.300Z,34.20
2022-08-17T09:53:38.676Z,34.32
2022-08-17T09:56:42.304Z,34.05
2022-08-17T09:59:38.391Z,34.26
2022-08-17T10:02:09.550Z,34.03
2022-08-17T10:05:11.082Z,33.95
2022-08-17T10:07:42.050Z,34.03
2022-08-17T10:10:21.117Z,33.97
2022-08-17T10:13:02.963Z,33.90
2022-08-17T10:15:55.695Z,34.11
2022-08-17T10:19:04.615Z,34.20
2022-08-17T10:22:01.361Z,34.11
2022-08-17T10:25:21.128Z,33.96
2022-08-17T10:27:53.414Z,33.79
2022-08-17T10:30:24.707Z,34.11
2022-08-17T10:32:57.268Z,34.10
2022-08-17T10:35:34.054Z,33.92
2022-08-17T10:38:31.197Z,33.98
2022-08-17T10:41:19.574Z,33.90
2022-08-17T10:44:39.246Z,34.04
2022-08-17T10:47:01.655Z,34.22
2022-08-17T10:49:34.084Z,34.05
2022-08-17T10:52:22.865Z,33.79
2022-08-17T10:54:58.328Z,33.78
2022-08-17T10:57:29.417Z,34.07
2022-08-17T11:00:14.943Z,33.91
2022-08-17T11:02:51.931Z,33.80
2022-08-17T11:05:42.991Z,33.71
2022-08-17T11:08:39.447Z,33.56
2022-08-17T11:11:20.797Z,33.63
2022-08-17T11:14:23.995Z,33.99
2022-08-17T11:17:13.363Z,33.95
2022-08-17T11:19:51.100Z,33.83
2022-08-17T11:22:36.922Z,33.83
2022-08-17T11:25:18.216Z,33.51
2022-08-17T11:27:53.541Z,33.71
2022-08-17T11:30:41.232Z,33.45
2022-08-17T11:33:43.937Z,33.28
2022-08-17T11:36:14.629Z,33.24
2022-08-17T11:39:20.169Z,33.68
2022-08-17T11:42:04.992Z,33.77
2022-08-17T11:44:57.623Z,33.46
2022-08-17T11:48:02.563Z,33.27
2022-08-17T11:51:13.717Z,33.69
2022-08-17T11:53:41.573Z,33.59
2022-08-17T11:56:43.240Z,33.36
2022-08-17T11:59:37.891Z,33.26
2022-08-17T12:02:32.630Z,33.31
2022-08-17T12:05:21.147Z,33.47
2022-08-17T12:08:04.699Z,33.51
2022-08-17T12:10:36.149Z,33.50
2022-08-17T12:13:11.898Z,33.48
2022-08-17T12:15:48.912Z,33.57
2022-08-17T12:18:24.788Z,33.31
2022-08-17T12:21:23.930Z,33.64
2022-08-17T12:24:30.501Z,33.51
2022-08-17T12:27:01.449Z,33.24
2022-08-17T12:29:38.716Z,33.46
2022-08-17T12:32:17.759Z,33.35
2022-08-17T12:34:48.021Z,33.51
2022-08-17T12:37:45.234Z,33.33
2022-08-17T12:40:24.869Z,33.24
2022-08-17T12:43:03.564Z,33.03
2022-08-17T12:45:33.878Z,33.34
2022-08-17T12:48:13.461Z,33.14
2022-08-17T12:50:48.020Z,33.01
2022-08-17T12:53:22.646Z,32.86
2022-08-17T12:55:52.054Z,32.85
2022-08-17T12:58:23.767Z,32.89
2022-08-17T13:01:02.803Z,33.08
2022-08-17T13:03:43.195Z,32.77
2022-08-17T13:06:16.557Z,33.05
2022-08-17T13:08:50.349Z,32.93
2022-08-17T13:11:24.734Z,32.84
2022-08-17T13:14:03.467Z,32.72
2022-08-17T13:16:33.861Z,32.63
2022-08-17T13:19:16.322Z,32.59
2022-08-17T13:21:50.572Z,32.43
2022-08-17T13:24:25.869Z,32.28
2022-08-17T13:27:07.758Z,32.63
2022-08-17T13:29:45.255Z,32.37
2022-08-17T13:32:23.650Z,32.28
2022-08-17T13:35:15.055Z,32.35
2022-08-17T13:38:04.074Z,32.42
2022-08-17T13:40:41.873Z,32.15
2022-08-17T13:43:13.584Z,32.11
2022-08-17T13:45:50.419Z,32.28
2022-08-17T13:48:33.795Z,31.99
2022-08-17T13:51:06.908Z,32.30
2022-08-17T13:53:37.724Z,32.21
2022-08-17T13:56:37.371Z,32.50
2022-08-17T13:59:02.908Z,32.30
2022-08-17T14:01:33.687Z,32.46
2022-08-17T14:04:14.435Z,32.14
2022-08-17T14:06:52.817Z,32.19
2022-08-17T14:09:29.775Z,32.26
2022-08-17T14:12:03.024Z,32.48
2022-08-17T14:14:31.789Z,32.21
2022-08-17T14:17:03.818Z,32.36
2022-08-17T14:19:31.682Z,32.23
2022-08-17T14:21:59.927Z,32.08
2022-08-17T14:24:41.297Z,31.98
2022-08-17T14:27:12.709Z,32.18
2022-08-17T14:29:41.437Z,32.23
2022-08-17T14:32:17.191Z,32.26
2022-08-17T14:34:46.173Z,32.11
2022-08-17T14:37:14.146Z,32.31
2022-08-17T14:39:42.065Z,32.03
2022-08-17T14:42:11.649Z,32.12
2022-08-17T14:44:39.738Z,32.08
2022-08-17T14:47:15.934Z,32.00
2022-08-17T14:49:43.940Z,32.11
2022-08-17T14:52:21.686Z,32.13
2022-08-17T14:54:51.540Z,32.14
2022-08-17T14:57:25.899Z,32.23
2022-08-17T15:00:02.477Z,32.24
2022-08-17T15:02:53.875Z,32.35
2022-08-17T15:05:24.643Z,32.30
2022-08-17T15:07:53.688Z,32.20
2022-08-17T15:10:21.960Z,32.05
2022-08-17T15:12:49.761Z,32.08
2022-08-17T15:15:22.784Z,32.18
2022-08-17T15:17:54.085Z,32.17
2022-08-17T15:20:27.428Z,31.94
2022-08-17T15:22:59.204Z,32.10
2022-08-17T15:25:32.053Z,32.19
2022-08-17T15:28:00.803Z,32.14
2022-08-17T15:30:33.935Z,32.05
2022-08-17T15:33:02.825Z,32.01
2022-08-17T15:35:33.168Z,32.03
2022-08-17T15:38:10.631Z,31.96
2022-08-17T15:40:43.405Z,32.32
2022-08-17T15:43:17.512Z,32.25
2022-08-17T15:45:59.919Z,32.40
2022-08-17T15:48:49.844Z,32.14
2022-08-17T15:51:29.813Z,32.43
2022-08-17T15:54:04.543Z,32.44
2022-08-17T15:56:46.942Z,32.68
2022-08-17T15:59:15.429Z,32.51
2022-08-17T16:03:15.017Z,32.54
2022-08-17T16:04:31.438Z,32.63
2022-08-17T16:07:01.671Z,32.87
2022-08-17T16:09:29.572Z,32.88
2022-08-17T16:11:59.309Z,32.86
2022-08-17T16:14:33.786Z,33.09
2022-08-17T16:17:38.718Z,33.10
2022-08-17T16:19:55.363Z,33.02
2022-08-17T16:22:33.064Z,32.98
2022-08-17T16:25:06.424Z,33.33
2022-08-17T16:27:34.310Z,33.14
2022-08-17T16:30:16.582Z,33.27
2022-08-17T16:32:55.701Z,33.23
2022-08-17T16:35:26.551Z,33.51
2022-08-17T16:37:57.421Z,33.35
2022-08-17T16:40:28.350Z,33.46
2022-08-17T16:42:57.689Z,33.60
2022-08-17T16:45:28.259Z,33.45
2022-08-17T16:47:59.313Z,33.56
2022-08-17T16:50:29.571Z,33.59
2022-08-17T16:53:18.271Z,33.58
2022-08-17T16:55:47.704Z,33.40
2022-08-17T16:58:16.138Z,33.57
2022-08-17T17:00:45.360Z,33.68
2022-08-17T17:03:22.417Z,33.63
2022-08-17T17:06:13.766Z,33.72
2022-08-17T17:08:50.081Z,33.83
2022-08-17T17:11:40.420Z,33.83
2022-08-17T17:14:28.575Z,33.77
2022-08-17T17:17:07.697Z,33.91
2022-08-17T17:19:45.915Z,33.99
2022-08-17T17:22:22.902Z,34.02
2022-08-17T17:25:02.935Z,34.09
2022-08-17T17:27:56.913Z,34.21
2022-08-17T17:30:44.820Z,34.19
2022-08-17T17:33:17.588Z,34.26
2022-08-17T17:35:51.820Z,34.45
2022-08-17T17:38:29.184Z,34.34
2022-08-17T17:41:04.497Z,34.39
2022-08-17T17:43:40.363Z,34.42
2022-08-17T17:46:27.624Z,34.53
2022-08-17T17:48:57.877Z,34.48
2022-08-17T17:52:08.764Z,34.71
2022-08-17T17:54:38.612Z,34.67
2022-08-17T17:57:35.333Z,34.82
2022-08-17T18:00:26.299Z,34.96
2022-08-17T18:03:15.274Z,34.94
2022-08-17T18:06:03.138Z,35.00
2022-08-17T18:08:53.101Z,35.05
2022-08-17T18:11:27.080Z,35.08
2022-08-17T18:14:25.167Z,35.13
2022-08-17T18:16:59.200Z,35.17
2022-08-17T18:19:29.997Z,35.06
2022-08-17T18:22:14.154Z,35.25
2022-08-17T18:24:45.685Z,35.22
2022-08-17T18:27:23.624Z,35.26
2022-08-17T18:29:55.272Z,35.24
2022-08-17T18:32:33.971Z,35.22
2022-08-17T18:35:04.795Z,35.45
2022-08-17T18:37:43.034Z,35.33
2022-08-17T18:40:17.306Z,35.41
2022-08-17T18:42:59.710Z,35.42
2022-08-17T18:45:42.426Z,35.33
2022-08-17T18:48:32.926Z,35.59
2022-08-17T18:51:27.415Z,35.53
2022-08-17T18:54:19.892Z,35.62
2022-08-17T18:56:58.921Z,35.69
2022-08-17T18:59:39.279Z,35.78
2022-08-17T19:02:23.255Z,35.83
2022-08-17T19:05:11.691Z,35.78
2022-08-17T19:07:45.533Z,36.06
2022-08-17T19:10:28.890Z,35.96
2022-08-17T19:13:24.462Z,36.07
2022-08-17T19:16:15.026Z,36.15
2022-08-17T19:19:19.100Z,36.19
2022-08-17T19:21:55.831Z,36.41
2022-08-17T19:24:26.858Z,36.20
2022-08-17T19:27:02.068Z,36.33
2022-08-17T19:29:44.984Z,36.56
2022-08-17T19:32:18.277Z,36.45
2022-08-17T19:34:46.658Z,36.67
2022-08-17T19:37:37.616Z,36.57
2022-08-17T19:40:51.799Z,36.69
2022-08-17T19:43:22.900Z,36.82
2022-08-17T19:45:57.149Z,36.85
2022-08-17T19:48:56.605Z,36.83
2022-08-17T19:51:34.177Z,36.98
2022-08-17T19:54:14.286Z,36.94
2022-08-17T19:57:01.722Z,37.04
2022-08-17T19:59:55.833Z,37.11
2022-08-17T20:02:56.577Z,37.23
2022-08-17T20:05:26.781Z,37.24
2022-08-17T20:08:06.071Z,37.38
2022-08-17T20:10:54.854Z,37.56
2022-08-17T20:13:33.256Z,37.34
2022-08-17T20:16:05.792Z,37.55
2022-08-17T20:18:33.995Z,37.35
2022-08-17T20:21:19.937Z,37.50
2022-08-17T20:24:20.688Z,37.64
2022-08-17T20:26:58.629Z,37.70
2022-08-17T20:29:36.889Z,37.70
2022-08-17T20:32:25.373Z,37.78
2022-08-17T20:35:16.997Z,37.73
2022-08-17T20:38:02.289Z,38.02
2022-08-17T20:40:35.354Z,37.99
2022-08-17T20:43:35.339Z,38.04
2022-08-17T20:46:32.471Z,38.24
2022-08-17T20:49:16.672Z,38.15
2022-08-17T20:52:02.651Z,38.19
2022-08-17T20:54:55.968Z,38.37
2022-08-17T20:57:45.827Z,38.41
2022-08-17T21:00:29.441Z,38.41
2022-08-17T21:03:15.984Z,38.48
2022-08-17T21:05:57.374Z,38.58
2022-08-17T21:08:55.222Z,38.56
2022-08-17T21:11:56.737Z,38.81
2022-08-17T21:14:31.551Z,38.81
2022-08-17T21:17:18.665Z,38.74
2022-08-17T21:20:12.066Z,38.88
2022-08-17T21:22:54.151Z,39.12
2022-08-17T21:25:27.553Z,39.30
2022-08-17T21:28:01.584Z,39.38
2022-08-17T21:30:30.402Z,39.28
2022-08-17T21:33:31.741Z,39.44
2022-08-17T21:36:00.129Z,39.26
2022-08-17T21:38:55.678Z,39.55
2022-08-17T21:41:46.286Z,39.58
2022-08-17T21:44:27.835Z,39.63
2022-08-17T21:47:21.362Z,39.74
2022-08-17T21:49:51.836Z,39.63
2022-08-17T21:52:22.855Z,39.87
2022-08-17T21:54:57.549Z,39.62
2022-08-17T21:57:28.434Z,39.82
2022-08-17T21:59:59.133Z,39.80
2022-08-17T22:02:35.733Z,39.88
2022-08-17T22:05:14.107Z,39.81
2022-08-17T22:07:50.919Z,40.07
2022-08-17T22:10:32.054Z,39.82
2022-08-17T22:13:04.586Z,40.06
2022-08-17T22:15:35.818Z,39.79
2022-08-17T22:18:19.794Z,39.82
2022-08-17T22:20:50.972Z,39.97
2022-08-17T22:24:00.316Z,39.99
2022-08-17T22:27:01.940Z,40.19
2022-08-17T22:29:56.916Z,40.22
2022-08-17T22:32:31.573Z,40.11
2022-08-17T22:35:35.403Z,40.26
2022-08-17T22:38:18.525Z,40.27
2022-08-17T22:40:55.354Z,40.41
2022-08-17T22:43:26.457Z,40.41
2022-08-17T22:45:58.026Z,40.35
2022-08-17T22:48:27.656Z,40.36
2022-08-17T22:51:17.534Z,40.48
2022-08-17T22:54:06.345Z,40.56
2022-08-17T22:56:52.787Z,40.53
2022-08-17T22:59:54.333Z,40.58
2022-08-17T23:02:26.329Z,40.80
2022-08-17T23:05:10.273Z,40.57
2022-08-17T23:07:38.264Z,40.77
2022-08-17T23:10:06.792Z,40.93
2022-08-17T23:12:39.034Z,40.78
2022-08-17T23:15:14.483Z,40.84
2022-08-17T23:17:45.639Z,40.97
2022-08-17T23:20:15.821Z,40.90
2022-08-17T23:22:51.344Z,40.88
2022-08-17T23:25:29.258Z,41.15
2022-08-17T23:28:11.485Z,41.01
2022-08-17T23:30:50.497Z,41.41
2022-08-17T23:33:30.520Z,41.53
2022-08-17T23:35:59.498Z,41.44
2022-08-17T23:38:28.460Z,41.45
2022-08-17T23:40:56.755Z,41.57
2022-08-17T23:43:25.670Z,41.63
2022-08-17T23:45:58.665Z,41.53
2022-08-17T23:48:35.378Z,41.48
2022-08-17T23:51:11.231Z,41.75
2022-08-17T23:53:42.274Z,41.50
2022-08-17T23:56:11.348Z,41.78
2022-08-17T23:58:44.939Z,41.58
